Time;durP1;ratioP1;P1;durP2;ratioP2;P2;SDS_P1;SDS_P2;PMS_P1;PMS_P2;Temp;Humidity;BMP_temperature;BMP_pressure;BME280_temperature;BME280_humidity;BME280_pressure;Samples;Min_cycle;Max_cycle;Signal;HPM_P1;HPM_P2
2021/10/10 00:00:52;;;;;;;14.25;8.25;;;8.10;99.90;;;;;;5016172;28;20544;-90
2021/10/10 00:03:18;;;;;;;11.77;8.55;;;8.40;99.90;;;;;;5016365;28;20018;-89
2021/10/10 00:05:44;;;;;;;11.70;7.72;;;8.20;99.90;;;;;;5016136;28;20028;-89
2021/10/10 00:08:10;;;;;;;12.82;8.43;;;8.40;99.90;;;;;;5033732;28;20079;-90
2021/10/10 00:10:35;;;;;;;12.48;6.97;;;8.90;99.90;;;;;;5016180;28;20032;-89
2021/10/10 00:13:01;;;;;;;15.65;8.00;;;9.20;99.90;;;;;;5033813;28;20535;-90
2021/10/10 00:15:28;;;;;;;13.55;8.05;;;9.10;99.90;;;;;;5015489;28;20026;-90
2021/10/10 00:17:55;;;;;;;10.73;8.27;;;9.20;99.90;;;;;;5016112;28;20501;-89
2021/10/10 00:20:21;;;;;;;10.52;7.00;;;9.10;99.90;;;;;;5000696;28;20518;-90
2021/10/10 00:22:47;;;;;;;12.82;8.05;;;9.10;99.90;;;;;;5016092;28;20021;-90
2021/10/10 00:25:13;;;;;;;10.38;7.20;;;9.00;99.90;;;;;;5016078;28;20017;-90
2021/10/10 00:27:39;;;;;;;11.15;7.90;;;8.80;99.90;;;;;;5016140;28;20029;-90
2021/10/10 00:30:07;;;;;;;11.90;7.40;;;8.50;99.90;;;;;;5017443;28;20025;-90
2021/10/10 00:32:33;;;;;;;14.07;7.43;;;8.70;99.90;;;;;;5021254;28;20120;-90
2021/10/10 00:34:59;;;;;;;11.25;7.38;;;9.00;99.90;;;;;;5018800;28;20061;-90
2021/10/10 00:37:25;;;;;;;11.30;7.05;;;9.00;99.90;;;;;;5016320;28;20048;-90
2021/10/10 00:39:51;;;;;;;11.30;7.20;;;8.70;99.90;;;;;;5015908;28;20022;-91
2021/10/10 00:42:17;;;;;;;13.60;7.18;;;9.10;99.90;;;;;;5015892;28;20433;-89
2021/10/10 00:44:47;;;;;;;12.00;6.72;;;9.10;99.90;;;;;;5015940;28;20060;-90
2021/10/10 00:47:13;;;;;;;15.40;7.50;;;9.10;99.90;;;;;;5015835;28;20049;-90
2021/10/10 00:49:40;;;;;;;13.05;7.30;;;8.70;99.90;;;;;;5015726;28;20025;-90
2021/10/10 00:52:07;;;;;;;9.95;6.63;;;8.60;99.90;;;;;;5015899;28;20029;-90
2021/10/10 00:54:34;;;;;;;13.65;7.57;;;8.90;99.90;;;;;;5015515;28;20041;-89
2021/10/10 00:57:04;;;;;;;15.98;8.15;;;9.00;99.90;;;;;;5015652;28;20481;-90
2021/10/10 00:59:31;;;;;;;14.88;7.90;;;8.80;99.90;;;;;;5016641;28;20025;-90
2021/10/10 01:01:57;;;;;;;10.73;7.43;;;8.40;99.90;;;;;;5015713;28;20026;-91
2021/10/10 01:04:23;;;;;;;12.15;6.93;;;8.30;99.90;;;;;;5015726;28;20110;-89
2021/10/10 01:06:48;;;;;;;9.10;6.55;;;8.50;99.90;;;;;;5015977;28;20026;-91
2021/10/10 01:09:15;;;;;;;14.43;7.05;;;9.00;99.90;;;;;;5015742;28;20063;-91
2021/10/10 01:11:41;;;;;;;11.10;7.10;;;9.20;99.90;;;;;;5015636;28;20091;-90
2021/10/10 01:14:07;;;;;;;13.23;7.07;;;9.00;99.90;;;;;;5015676;28;20030;-91
2021/10/10 01:16:33;;;;;;;14.05;7.32;;;9.30;99.90;;;;;;5015734;28;20366;-89
2021/10/10 01:18:59;;;;;;;12.25;6.78;;;9.20;99.90;;;;;;5015770;28;20018;-91
2021/10/10 01:21:25;;;;;;;14.88;7.28;;;9.10;99.90;;;;;;5015774;28;20370;-91
2021/10/10 01:23:51;;;;;;;16.92;7.18;;;8.80;99.90;;;;;;5015526;28;20025;-90
2021/10/10 01:26:17;;;;;;;13.20;7.85;;;8.60;99.90;;;;;;5016009;28;20025;-90
2021/10/10 01:28:43;;;;;;;13.85;7.63;;;8.40;99.90;;;;;;5019341;28;20021;-91
2021/10/10 01:31:09;;;;;;;15.40;6.68;;;8.10;99.90;;;;;;5019157;28;20489;-89
2021/10/10 01:33:35;;;;;;;10.15;6.20;;;8.10;99.90;;;;;;5019193;28;20029;-90
2021/10/10 01:36:01;;;;;;;13.68;7.18;;;8.60;99.90;;;;;;5036848;28;20025;-90
2021/10/10 01:38:27;;;;;;;9.80;6.65;;;8.70;99.90;;;;;;5036553;28;20369;-90
2021/10/10 01:40:52;;;;;;;11.32;6.70;;;8.90;99.90;;;;;;5019025;28;20018;-90
2021/10/10 01:43:18;;;;;;;13.02;6.65;;;8.90;99.90;;;;;;5036726;28;20028;-90
2021/10/10 01:45:44;;;;;;;12.18;7.50;;;8.70;99.90;;;;;;5019026;28;20022;-90
2021/10/10 01:48:11;;;;;;;12.10;7.43;;;8.70;99.90;;;;;;5018917;28;20075;-90
2021/10/10 01:50:37;;;;;;;12.77;7.05;;;7.90;99.90;;;;;;5036364;28;20035;-90
2021/10/10 01:53:03;;;;;;;11.45;7.22;;;7.80;99.90;;;;;;5019262;28;20036;-90
2021/10/10 01:55:30;;;;;;;13.32;6.72;;;8.30;99.90;;;;;;5015434;28;20046;-90
2021/10/10 01:57:56;;;;;;;13.40;7.45;;;8.80;99.90;;;;;;5015145;28;20481;-90
2021/10/10 02:00:22;;;;;;;13.95;7.65;;;8.80;99.90;;;;;;5015159;28;20533;-90
2021/10/10 02:02:48;;;;;;;12.13;7.10;;;8.70;99.90;;;;;;5015335;28;20050;-90
2021/10/10 02:05:13;;;;;;;11.98;6.57;;;8.50;99.90;;;;;;5015361;28;20083;-90
2021/10/10 02:07:40;;;;;;;10.95;6.80;;;8.80;99.90;;;;;;5015206;28;20037;-89
2021/10/10 02:10:07;;;;;;;9.57;6.53;;;8.80;99.90;;;;;;5015202;28;20109;-90
2021/10/10 02:12:33;;;;;;;9.55;6.25;;;8.80;99.90;;;;;;5015325;28;20026;-90
2021/10/10 02:14:59;;;;;;;10.60;6.82;;;8.70;99.90;;;;;;5016618;28;20032;-90
2021/10/10 02:17:25;;;;;;;14.00;7.20;;;8.60;99.90;;;;;;5015454;28;20026;-90
2021/10/10 02:19:50;;;;;;;9.15;6.57;;;8.30;99.90;;;;;;5015207;28;20037;-91
2021/10/10 02:22:16;;;;;;;13.45;7.45;;;8.30;99.90;;;;;;5015043;28;20029;-91
2021/10/10 02:24:42;;;;;;;15.50;7.07;;;7.90;99.90;;;;;;5014912;28;20026;-89
2021/10/10 02:27:07;;;;;;;12.07;7.25;;;8.10;99.90;;;;;;5015154;28;20022;-90
2021/10/10 02:29:33;;;;;;;10.25;6.57;;;8.40;99.90;;;;;;5014825;28;20030;-90
2021/10/10 02:31:59;;;;;;;11.25;6.68;;;8.30;99.90;;;;;;5014740;28;20033;-91
2021/10/10 02:34:24;;;;;;;9.05;6.40;;;8.40;99.90;;;;;;5014604;28;20469;-91
2021/10/10 02:36:50;;;;;;;11.00;7.53;;;8.20;99.90;;;;;;5014592;28;20466;-90
2021/10/10 02:39:16;;;;;;;11.60;6.35;;;7.80;99.90;;;;;;5014165;28;20026;-90
2021/10/10 02:41:41;;;;;;;17.17;6.25;;;7.90;99.90;;;;;;5014915;28;20034;-90
2021/10/10 02:44:07;;;;;;;12.32;6.82;;;8.20;99.90;;;;;;5017854;28;20022;-90
2021/10/10 02:46:33;;;;;;;8.77;5.97;;;8.00;99.90;;;;;;5022852;28;20426;-90
2021/10/10 02:49:00;;;;;;;12.15;7.30;;;7.70;99.90;;;;;;5019248;28;20488;-90
2021/10/10 02:51:26;;;;;;;12.20;7.25;;;7.40;99.90;;;;;;5015713;28;20501;-90
2021/10/10 02:53:52;;;;;;;13.02;7.15;;;7.40;99.90;;;;;;5020692;28;20041;-90
2021/10/10 02:56:18;;;;;;;12.05;7.32;;;7.50;99.90;;;;;;5018502;28;20140;-90
2021/10/10 02:58:43;;;;;;;9.82;6.65;;;7.30;99.90;;;;;;5017722;28;20028;-90
2021/10/10 03:01:12;;;;;;;10.70;6.65;;;7.40;99.90;;;;;;5017791;28;20071;-91
2021/10/10 03:03:38;;;;;;;12.75;6.00;;;7.70;99.90;;;;;;5017633;28;20108;-90
2021/10/10 03:06:04;;;;;;;10.85;6.40;;;8.20;99.90;;;;;;5017420;28;20056;-90
2021/10/10 03:08:29;;;;;;;11.98;6.60;;;8.30;99.90;;;;;;5018086;28;20057;-90
2021/10/10 03:10:55;;;;;;;14.73;6.95;;;7.90;99.90;;;;;;5017407;28;20026;-90
2021/10/10 03:13:21;;;;;;;10.70;6.88;;;7.80;99.90;;;;;;5017366;28;20025;-91
2021/10/10 03:15:47;;;;;;;13.15;8.05;;;7.40;99.90;;;;;;5034868;28;20026;-90
2021/10/10 03:18:12;;;;;;;11.25;6.72;;;7.10;99.90;;;;;;5034858;28;20036;-90
2021/10/10 03:20:38;;;;;;;11.70;6.65;;;7.20;99.90;;;;;;5017048;28;20120;-90
2021/10/10 03:23:04;;;;;;;11.27;6.57;;;7.00;99.90;;;;;;5017168;28;20462;-90
2021/10/10 03:25:29;;;;;;;12.43;7.18;;;7.00;99.90;;;;;;5017031;28;20025;-91
2021/10/10 03:27:55;;;;;;;11.45;7.00;;;7.00;99.90;;;;;;5016963;28;20021;-90
2021/10/10 03:30:21;;;;;;;11.52;6.50;;;7.50;99.90;;;;;;5017024;28;20028;-89
2021/10/10 03:32:47;;;;;;;11.07;6.28;;;7.80;99.90;;;;;;5016847;28;20034;-91
2021/10/10 03:35:13;;;;;;;12.15;7.35;;;8.30;99.90;;;;;;5016852;28;20366;-90
2021/10/10 03:37:38;;;;;;;11.23;7.45;;;8.20;99.90;;;;;;5017034;28;20116;-90
2021/10/10 03:40:07;;;;;;;11.07;6.85;;;7.60;99.90;;;;;;5017056;28;20076;-91
2021/10/10 03:42:33;;;;;;;12.25;7.35;;;8.00;99.90;;;;;;5016613;28;20033;-90
2021/10/10 03:44:59;;;;;;;14.90;7.10;;;7.80;99.90;;;;;;5017042;28;20021;-90
2021/10/10 03:47:25;;;;;;;9.77;5.85;;;7.70;99.90;;;;;;5017003;28;20028;-91
2021/10/10 03:49:51;;;;;;;11.23;6.90;;;7.90;99.90;;;;;;5033612;28;20037;-91
2021/10/10 03:52:16;;;;;;;10.77;6.40;;;8.20;99.90;;;;;;5017084;28;20040;-90
2021/10/10 03:57:11;;;;;;;11.02;6.53;;;8.50;99.90;;;;;;5034814;28;20040;-91
2021/10/10 03:59:36;;;;;;;9.07;6.28;;;8.60;99.90;;;;;;5017056;28;20120;-90
2021/10/10 04:02:06;;;;;;;12.27;6.55;;;8.40;99.90;;;;;;5017085;28;20024;-90
2021/10/10 04:04:35;;;;;;;10.85;6.43;;;8.10;99.90;;;;;;5034348;28;20018;-90
2021/10/10 04:07:01;;;;;;;12.50;6.85;;;7.60;99.90;;;;;;5016593;28;20025;-90
2021/10/10 04:09:27;;;;;;;13.93;7.32;;;7.00;99.90;;;;;;5017072;28;20030;-90
2021/10/10 04:11:52;;;;;;;17.45;6.70;;;6.50;99.90;;;;;;5034256;28;20025;-91
2021/10/10 04:14:18;;;;;;;10.13;6.30;;;6.70;99.90;;;;;;5016828;28;20049;-91
2021/10/10 04:16:44;;;;;;;9.90;6.63;;;6.70;99.90;;;;;;5034127;28;20029;-91
2021/10/10 04:19:09;;;;;;;13.45;6.80;;;6.80;99.90;;;;;;5016327;28;20025;-90
2021/10/10 04:21:38;;;;;;;12.40;6.70;;;7.00;99.90;;;;;;5034434;28;20014;-90
2021/10/10 04:24:04;;;;;;;9.90;6.38;;;7.60;99.90;;;;;;5034229;28;20056;-90
2021/10/10 04:26:30;;;;;;;16.05;7.03;;;7.90;99.90;;;;;;5016567;28;20044;-91
2021/10/10 04:28:55;;;;;;;9.95;6.20;;;7.70;99.90;;;;;;5016550;28;20053;-89
2021/10/10 04:31:21;;;;;;;12.27;7.00;;;7.30;99.90;;;;;;5016560;28;20021;-91
2021/10/10 04:33:47;;;;;;;11.98;6.47;;;7.20;99.90;;;;;;5016839;28;20041;-91
2021/10/10 04:36:12;;;;;;;11.05;6.63;;;7.30;99.90;;;;;;5016557;28;20443;-90
2021/10/10 04:38:38;;;;;;;13.40;6.15;;;7.50;99.90;;;;;;5016530;28;20022;-91
2021/10/10 04:41:04;;;;;;;12.88;6.57;;;7.80;99.90;;;;;;5016776;28;20029;-91
2021/10/10 04:43:29;;;;;;;14.10;6.40;;;7.80;99.90;;;;;;5016674;28;20029;-91
2021/10/10 04:45:55;;;;;;;12.10;6.72;;;7.70;99.90;;;;;;5016869;28;20384;-90
2021/10/10 04:48:21;;;;;;;10.15;6.60;;;7.20;99.90;;;;;;5034381;28;20021;-91
2021/10/10 04:50:47;;;;;;;7.85;5.50;;;7.20;99.90;;;;;;5016724;28;20029;-90
2021/10/10 04:53:12;;;;;;;10.45;6.00;;;7.30;99.90;;;;;;5033736;28;20385;-90
2021/10/10 04:55:39;;;;;;;10.68;6.50;;;7.80;99.90;;;;;;5016614;28;20174;-90
2021/10/10 04:58:04;;;;;;;11.88;6.50;;;7.80;99.90;;;;;;5017719;28;20030;-90
2021/10/10 05:00:30;;;;;;;9.93;6.63;;;7.50;99.90;;;;;;5019618;28;20047;-91
2021/10/10 05:02:55;;;;;;;14.23;7.13;;;7.40;99.90;;;;;;5025184;28;20018;-91
2021/10/10 05:05:21;;;;;;;14.30;6.88;;;7.30;99.90;;;;;;5021004;28;20017;-90
2021/10/10 05:07:47;;;;;;;11.57;6.15;;;7.40;99.90;;;;;;5020396;28;20556;-90
2021/10/10 05:10:13;;;;;;;12.82;6.18;;;7.40;99.90;;;;;;5019861;28;20025;-91
2021/10/10 05:12:39;;;;;;;14.38;6.32;;;7.60;99.90;;;;;;5019927;28;20026;-91
2021/10/10 05:15:05;;;;;;;16.73;7.10;;;7.80;99.90;;;;;;5020011;28;20116;-90
2021/10/10 05:17:31;;;;;;;11.55;6.30;;;7.30;99.90;;;;;;5037465;28;20131;-91
2021/10/10 05:19:57;;;;;;;10.40;6.40;;;7.40;99.90;;;;;;5019705;28;20026;-90
2021/10/10 05:22:23;;;;;;;11.32;7.18;;;7.80;99.90;;;;;;5037537;28;20022;-91
2021/10/10 05:24:50;;;;;;;13.10;7.22;;;7.70;99.90;;;;;;5019860;28;20026;-91
2021/10/10 05:27:16;;;;;;;10.68;7.15;;;7.60;99.90;;;;;;5036901;28;20470;-91
2021/10/10 05:29:42;;;;;;;11.80;7.20;;;7.80;99.90;;;;;;5019743;28;20026;-91
2021/10/10 05:32:07;;;;;;;13.05;6.82;;;7.40;99.90;;;;;;5020550;28;20116;-90
2021/10/10 05:34:33;;;;;;;10.45;6.40;;;7.50;99.90;;;;;;5019507;28;20029;-91
2021/10/10 05:36:59;;;;;;;12.00;6.60;;;7.60;99.90;;;;;;5019551;28;20021;-91
2021/10/10 05:39:25;;;;;;;12.98;6.85;;;7.60;99.90;;;;;;5037115;28;20078;-90
2021/10/10 05:41:50;;;;;;;12.00;7.05;;;7.30;99.90;;;;;;5019297;28;20107;-91
2021/10/10 05:44:16;;;;;;;12.35;6.88;;;7.00;99.90;;;;;;5019330;28;20029;-91
2021/10/10 05:46:42;;;;;;;13.73;6.93;;;7.20;99.90;;;;;;5019351;28;20108;-91
2021/10/10 05:49:07;;;;;;;11.77;6.43;;;7.50;99.90;;;;;;5019114;28;20032;-91
2021/10/10 05:51:33;;;;;;;9.80;6.25;;;7.60;99.90;;;;;;5019309;28;20503;-91
2021/10/10 05:53:59;;;;;;;10.73;7.15;;;7.70;99.90;;;;;;5018899;28;20116;-91
2021/10/10 05:56:25;;;;;;;12.35;6.82;;;7.80;99.90;;;;;;5019101;28;20620;-91
2021/10/10 05:58:56;;;;;;;11.35;6.85;;;7.40;99.90;;;;;;5019258;28;20393;-91
2021/10/10 06:01:22;;;;;;;11.13;6.28;;;7.50;99.90;;;;;;5018806;28;20108;-92
2021/10/10 06:03:48;;;;;;;8.02;5.97;;;7.40;99.90;;;;;;5018905;28;20025;-91
2021/10/10 06:06:14;;;;;;;10.38;6.18;;;7.60;99.90;;;;;;5019087;28;20446;-91
2021/10/10 06:08:40;;;;;;;12.60;7.00;;;7.80;99.90;;;;;;5019258;28;20021;-91
2021/10/10 06:11:05;;;;;;;11.77;6.95;;;7.70;99.90;;;;;;5036475;28;20056;-91
2021/10/10 06:13:32;;;;;;;12.88;7.93;;;7.60;99.90;;;;;;5017892;28;20028;-91
2021/10/10 06:15:58;;;;;;;10.80;6.88;;;7.30;99.90;;;;;;5018596;28;20025;-91
2021/10/10 06:18:24;;;;;;;10.90;6.65;;;7.60;99.90;;;;;;5018360;28;20201;-90
2021/10/10 06:20:50;;;;;;;10.80;6.35;;;7.50;99.90;;;;;;5018742;28;20056;-90
2021/10/10 06:23:16;;;;;;;11.25;6.72;;;7.80;99.90;;;;;;5035979;28;20025;-91
2021/10/10 06:25:42;;;;;;;12.55;7.50;;;7.70;99.90;;;;;;5018266;28;20040;-90
2021/10/10 06:28:07;;;;;;;12.52;6.75;;;7.50;99.90;;;;;;5018527;28;20032;-91
2021/10/10 06:30:33;;;;;;;11.73;7.60;;;7.60;99.90;;;;;;5018452;28;20025;-91
2021/10/10 06:32:59;;;;;;;12.85;6.70;;;7.70;99.90;;;;;;5018472;28;20036;-91
2021/10/10 06:35:24;;;;;;;11.77;7.65;;;7.50;99.90;;;;;;5018475;28;20028;-90
2021/10/10 06:37:50;;;;;;;13.13;8.02;;;7.80;99.90;;;;;;5017784;28;20029;-91
2021/10/10 06:40:16;;;;;;;10.38;6.72;;;8.10;99.90;;;;;;5018261;28;20078;-90
2021/10/10 06:42:42;;;;;;;11.52;7.38;;;8.10;99.90;;;;;;5018396;28;20018;-90
2021/10/10 06:45:08;;;;;;;14.95;7.93;;;8.30;99.90;;;;;;5018260;28;20392;-91
2021/10/10 06:47:36;;;;;;;10.32;6.85;;;8.30;99.90;;;;;;5017935;28;20032;-90
2021/10/10 06:50:03;;;;;;;13.32;7.00;;;8.20;99.90;;;;;;5017918;28;20060;-90
2021/10/10 06:52:30;;;;;;;10.65;7.35;;;8.30;99.90;;;;;;5017767;28;20025;-90
2021/10/10 06:54:55;;;;;;;14.32;7.70;;;8.30;99.90;;;;;;5017766;28;20049;-91
2021/10/10 06:57:21;;;;;;;11.48;7.40;;;8.30;99.90;;;;;;5017795;28;20025;-90
2021/10/10 06:59:47;;;;;;;10.60;7.97;;;8.60;99.90;;;;;;5017664;28;20545;-91
2021/10/10 07:02:12;;;;;;;12.48;8.10;;;8.20;99.90;;;;;;5017608;28;20017;-90
2021/10/10 07:04:38;;;;;;;9.88;6.93;;;8.20;99.90;;;;;;5017713;28;20025;-89
2021/10/10 07:07:04;;;;;;;13.43;8.23;;;8.50;99.90;;;;;;5035440;28;20144;-89
2021/10/10 07:09:30;;;;;;;14.82;8.07;;;8.70;99.90;;;;;;5018221;28;20030;-90
2021/10/10 07:11:55;;;;;;;13.98;7.97;;;8.70;99.90;;;;;;5017275;28;20030;-90
2021/10/10 07:14:21;;;;;;;12.88;7.82;;;8.40;99.90;;;;;;5018251;28;20424;-89
2021/10/10 07:16:47;;;;;;;15.98;8.27;;;8.70;99.90;;;;;;5018314;28;20032;-89
2021/10/10 07:19:15;;;;;;;11.32;7.68;;;8.80;99.90;;;;;;5018360;28;20025;-90
2021/10/10 07:21:58;;;;;;;15.90;8.10;;;8.70;99.90;;;;;;5017665;28;20022;-90
2021/10/10 07:27:08;;;;;;;13.95;8.60;;;8.60;99.90;;;;;;5035426;28;20034;-89
2021/10/10 07:29:34;;;;;;;13.82;10.18;;;8.60;99.90;;;;;;5017424;28;20029;-89
2021/10/10 07:32:00;;;;;;;14.05;8.30;;;9.10;99.90;;;;;;5017081;28;20029;-90
2021/10/10 07:34:25;;;;;;;12.02;7.85;;;9.00;99.90;;;;;;5034875;28;20021;-90
2021/10/10 07:36:51;;;;;;;13.20;8.00;;;9.00;99.90;;;;;;5017242;28;20064;-90
2021/10/10 07:39:17;;;;;;;13.80;8.52;;;9.00;99.90;;;;;;5016904;28;20026;-90
2021/10/10 07:41:43;;;;;;;13.95;8.48;;;9.10;99.90;;;;;;5034574;28;20029;-90
2021/10/10 07:44:12;;;;;;;15.43;8.63;;;9.30;99.90;;;;;;5016767;28;20163;-89
2021/10/10 07:46:40;;;;;;;15.43;8.25;;;9.20;99.90;;;;;;5016642;28;20106;-90
2021/10/10 07:49:08;;;;;;;18.08;8.75;;;9.60;99.90;;;;;;5016741;28;20029;-90
2021/10/10 07:51:35;;;;;;;16.95;8.60;;;9.90;99.90;;;;;;5017347;28;20026;-89
2021/10/10 07:54:00;;;;;;;12.88;8.43;;;10.10;99.90;;;;;;5016774;28;20049;-89
2021/10/10 07:56:26;;;;;;;15.35;9.20;;;10.20;99.90;;;;;;5016699;28;20531;-90
2021/10/10 07:58:52;;;;;;;16.55;8.50;;;10.10;99.90;;;;;;5016635;28;20024;-89
2021/10/10 08:01:18;;;;;;;16.80;9.38;;;10.30;99.90;;;;;;5034354;28;20026;-89
2021/10/10 08:03:43;;;;;;;15.07;8.98;;;10.60;99.90;;;;;;5016593;28;20075;-91
2021/10/10 08:06:09;;;;;;;19.65;8.55;;;10.80;99.90;;;;;;5016540;28;20025;-90
2021/10/10 08:08:35;;;;;;;18.70;10.52;;;10.90;99.90;;;;;;5016580;28;20185;-90
2021/10/10 08:11:01;;;;;;;18.35;9.60;;;11.10;99.90;;;;;;5016590;28;20100;-90
2021/10/10 08:13:27;;;;;;;18.27;9.45;;;11.20;99.90;;;;;;5016563;28;20033;-90
2021/10/10 08:15:52;;;;;;;16.92;9.90;;;11.30;99.90;;;;;;5016364;28;20033;-90
2021/10/10 08:18:18;;;;;;;16.45;9.50;;;11.40;99.90;;;;;;5016603;28;20029;-90
2021/10/10 08:20:44;;;;;;;10.93;7.22;;;11.60;99.90;;;;;;5016541;28;20582;-89
2021/10/10 08:23:10;;;;;;;16.27;10.07;;;11.80;99.90;;;;;;5016557;28;20018;-90
2021/10/10 08:25:36;;;;;;;20.35;9.93;;;11.90;99.90;;;;;;5016064;28;20022;-90
2021/10/10 08:28:02;;;;;;;15.35;8.98;;;11.70;99.90;;;;;;5016201;28;20040;-90
2021/10/10 08:30:28;;;;;;;16.90;9.30;;;11.80;99.90;;;;;;5016083;28;20041;-90
2021/10/10 08:32:54;;;;;;;17.67;9.85;;;12.00;99.90;;;;;;5016171;28;20477;-90
2021/10/10 08:35:20;;;;;;;17.58;9.90;;;12.10;99.90;;;;;;5016186;28;20079;-90
2021/10/10 08:37:46;;;;;;;16.10;9.75;;;12.20;99.90;;;;;;5019205;28;20120;-90
2021/10/10 08:40:16;;;;;;;17.83;8.95;;;12.30;99.90;;;;;;5020143;28;20477;-89
2021/10/10 08:42:52;;;;;;;17.13;9.07;;;12.40;99.90;;;;;;5020350;28;20026;-90
2021/10/10 08:45:29;;;;;;;18.25;9.48;;;12.40;99.90;;;;;;5020218;28;20028;-90
2021/10/10 08:47:55;;;;;;;15.68;9.15;;;12.50;99.90;;;;;;5020344;28;20064;-89
2021/10/10 08:50:27;;;;;;;18.77;8.95;;;12.60;99.90;;;;;;5020360;28;20029;-89
2021/10/10 08:53:00;;;;;;;16.27;8.75;;;12.80;99.90;;;;;;5019747;28;20128;-90
2021/10/10 08:55:33;;;;;;;20.25;9.23;;;12.90;99.90;;;;;;5019579;28;20049;-90
2021/10/10 08:58:00;;;;;;;16.60;9.65;;;13.00;99.90;;;;;;5019526;28;20036;-90
2021/10/10 09:00:31;;;;;;;14.25;9.25;;;13.30;99.90;;;;;;5019995;28;20022;-90
2021/10/10 09:02:58;;;;;;;16.88;8.18;;;13.30;99.90;;;;;;5020128;28;20036;-89
2021/10/10 09:05:26;;;;;;;13.85;8.20;;;13.30;99.90;;;;;;5019530;28;20036;-90
2021/10/10 09:07:54;;;;;;;15.25;8.88;;;13.50;99.90;;;;;;5019333;28;20026;-90
2021/10/10 09:10:22;;;;;;;16.92;8.50;;;13.60;99.90;;;;;;5019200;28;20025;-90
2021/10/10 09:12:49;;;;;;;14.10;8.20;;;13.90;99.90;;;;;;5036954;28;20017;-90
2021/10/10 09:15:22;;;;;;;18.33;8.05;;;13.90;99.90;;;;;;5019351;28;20021;-89
2021/10/10 09:17:56;;;;;;;17.00;8.50;;;13.90;99.90;;;;;;5019106;28;20370;-90
2021/10/10 09:20:47;;;;;;;22.75;8.82;;;14.00;99.90;;;;;;5019232;28;20362;-90
2021/10/10 09:23:16;;;;;;;17.25;9.07;;;13.90;99.90;;;;;;5019410;28;20049;-90
2021/10/10 09:25:58;;;;;;;22.58;9.23;;;14.10;99.90;;;;;;5020084;28;20026;-90
2021/10/10 09:28:25;;;;;;;16.23;8.05;;;14.60;99.90;;;;;;5027955;28;20033;-91
2021/10/10 09:30:56;;;;;;;24.70;14.82;;;14.60;99.90;;;;;;5030098;28;20025;-90
2021/10/10 09:33:42;;;;;;;27.25;15.65;;;14.70;99.90;;;;;;5022318;28;20503;-91
2021/10/10 09:36:17;;;;;;;16.88;9.05;;;14.60;99.90;;;;;;5020231;28;20037;-90
2021/10/10 09:38:48;;;;;;;15.25;7.75;;;14.80;99.90;;;;;;5019339;28;20136;-90
2021/10/10 09:41:19;;;;;;;13.70;8.70;;;15.10;99.90;;;;;;5019374;28;20559;-90
2021/10/10 09:44:13;;;;;;;22.75;9.18;;;15.10;99.90;;;;;;5019374;28;20022;-91
2021/10/10 09:46:44;;;;;;;12.48;7.78;;;15.20;99.90;;;;;;5019623;28;20036;-90
2021/10/10 09:49:30;;;;;;;14.40;7.78;;;15.40;99.90;;;;;;5019200;28;20029;-91
2021/10/10 09:52:09;;;;;;;14.35;8.52;;;15.80;99.90;;;;;;5019135;28;20025;-90
2021/10/10 09:54:52;;;;;;;12.20;7.50;;;15.70;99.90;;;;;;5018987;28;20041;-91
2021/10/10 09:57:19;;;;;;;17.85;8.02;;;15.80;99.90;;;;;;5019027;28;20060;-91
2021/10/10 09:59:45;;;;;;;17.05;7.78;;;16.10;99.90;;;;;;5018998;28;20029;-91
2021/10/10 10:02:12;;;;;;;15.82;8.55;;;16.10;99.90;;;;;;5018641;28;20025;-90
2021/10/10 10:04:44;;;;;;;18.48;7.75;;;16.00;99.90;;;;;;5035910;28;20101;-90
2021/10/10 10:07:18;;;;;;;15.13;7.60;;;16.10;99.90;;;;;;5018462;28;20033;-90
2021/10/10 10:09:50;;;;;;;13.77;7.45;;;16.10;99.90;;;;;;5018254;28;20052;-90
2021/10/10 10:12:20;;;;;;;12.90;6.95;;;16.30;99.90;;;;;;5035923;28;20060;-90
2021/10/10 10:14:56;;;;;;;11.98;6.90;;;16.50;99.90;;;;;;5018037;28;20029;-90
2021/10/10 10:17:26;;;;;;;14.45;6.75;;;16.70;99.90;;;;;;5035752;28;20021;-90
2021/10/10 10:19:55;;;;;;;14.35;7.07;;;16.80;99.90;;;;;;5018039;28;20031;-91
2021/10/10 10:22:22;;;;;;;18.98;7.20;;;16.80;99.90;;;;;;5018020;28;20163;-90
2021/10/10 10:24:48;;;;;;;14.60;6.57;;;17.30;99.90;;;;;;5017717;28;20116;-88
2021/10/10 10:27:15;;;;;;;21.90;7.00;;;17.30;99.90;;;;;;5017710;28;20060;-89
2021/10/10 10:29:47;;;;;;;14.52;6.55;;;17.30;99.90;;;;;;5018157;28;20489;-89
2021/10/10 10:32:15;;;;;;;12.43;6.60;;;17.70;99.90;;;;;;5018601;28;20461;-89
2021/10/10 10:35:02;;;;;;;10.10;6.93;;;17.50;99.90;;;;;;5017654;28;20032;-90
2021/10/10 10:37:43;;;;;;;12.15;6.82;;;17.80;99.40;;;;;;5017603;28;20026;-90
2021/10/10 10:40:14;;;;;;;12.93;6.18;;;18.00;99.90;;;;;;5017890;28;20060;-91
2021/10/10 10:42:42;;;;;;;12.35;6.70;;;18.40;99.20;;;;;;5017736;28;20018;-89
2021/10/10 10:45:29;;;;;;;15.82;7.35;;;18.50;97.70;;;;;;5018229;28;20482;-91
2021/10/10 10:48:01;;;;;;;16.88;8.52;;;18.90;98.40;;;;;;5017608;28;20029;-90
2021/10/10 10:50:32;;;;;;;14.32;6.90;;;19.10;97.50;;;;;;5017286;28;20056;-90
2021/10/10 10:53:13;;;;;;;21.52;7.13;;;19.00;97.60;;;;;;5017790;28;20034;-89
2021/10/10 10:55:53;;;;;;;14.40;6.65;;;19.00;96.80;;;;;;5013983;28;20042;-89
2021/10/10 10:58:18;;;;;;;14.68;6.75;;;19.20;97.10;;;;;;5013754;28;20042;-90
2021/10/10 11:00:46;;;;;;;12.45;6.75;;;19.60;96.70;;;;;;5014602;28;20025;-90
2021/10/10 11:03:26;;;;;;;19.73;7.65;;;19.60;96.10;;;;;;5013884;28;20149;-87
2021/10/10 11:06:00;;;;;;;13.00;7.18;;;19.80;95.40;;;;;;5013714;28;20026;-90
2021/10/10 11:08:26;;;;;;;11.82;6.70;;;19.50;95.70;;;;;;5013783;28;20026;-90
2021/10/10 11:11:04;;;;;;;13.82;7.38;;;19.60;95.20;;;;;;5013621;28;20033;-90
2021/10/10 11:13:35;;;;;;;13.32;6.88;;;19.80;94.70;;;;;;5014795;28;20057;-90
2021/10/10 11:16:20;;;;;;;12.68;7.30;;;19.90;94.00;;;;;;5013502;28;20029;-90
2021/10/10 11:18:55;;;;;;;11.90;6.30;;;20.30;93.80;;;;;;5014811;28;20065;-88
2021/10/10 11:21:22;;;;;;;12.02;7.15;;;20.20;93.80;;;;;;5013396;28;20029;-90
2021/10/10 11:23:50;;;;;;;17.17;6.65;;;20.30;93.00;;;;;;5013258;28;20166;-89
2021/10/10 11:26:15;;;;;;;12.93;6.28;;;20.10;93.00;;;;;;5013200;28;20045;-89
2021/10/10 11:28:50;;;;;;;12.90;6.28;;;20.10;92.00;;;;;;5013124;28;20022;-89
2021/10/10 11:31:28;;;;;;;11.52;6.22;;;20.10;92.10;;;;;;5013317;28;20025;-89
2021/10/10 11:33:57;;;;;;;10.93;6.28;;;20.20;92.50;;;;;;5013266;28;20608;-89
2021/10/10 11:36:39;;;;;;;13.88;7.03;;;20.30;92.00;;;;;;5013234;28;20537;-89
2021/10/10 11:39:18;;;;;;;19.27;7.47;;;20.20;91.80;;;;;;5013432;28;20421;-90
2021/10/10 11:41:52;;;;;;;9.63;6.53;;;20.50;91.10;;;;;;5015255;28;20069;-89
2021/10/10 11:44:22;;;;;;;12.57;6.72;;;21.10;90.20;;;;;;5013733;28;20013;-90
2021/10/10 11:46:52;;;;;;;19.88;6.47;;;20.70;89.70;;;;;;5014631;28;20393;-89
2021/10/10 11:49:38;;;;;;;14.70;7.20;;;21.10;90.30;;;;;;5013761;28;20505;-90
2021/10/10 11:52:26;;;;;;;11.65;6.63;;;21.30;87.50;;;;;;5012839;28;20026;-90
2021/10/10 11:55:04;;;;;;;12.23;6.75;;;21.70;86.20;;;;;;5026690;28;20111;-89
2021/10/10 11:57:30;;;;;;;12.30;6.72;;;22.30;83.50;;;;;;5016130;28;20037;-89
2021/10/10 12:00:03;;;;;;;12.05;6.55;;;21.80;86.00;;;;;;5033702;28;20366;-89
2021/10/10 12:02:46;;;;;;;10.50;6.65;;;21.80;83.10;;;;;;5016016;28;20029;-89
2021/10/10 12:05:13;;;;;;;15.10;6.55;;;22.20;83.80;;;;;;5033603;28;20018;-89
2021/10/10 12:07:41;;;;;;;12.10;5.82;;;22.60;82.30;;;;;;5033519;28;20516;-89
2021/10/10 12:10:10;;;;;;;14.40;6.50;;;22.70;80.40;;;;;;5015989;28;20029;-90
2021/10/10 12:12:36;;;;;;;12.07;6.18;;;23.00;80.90;;;;;;5015091;28;20392;-89
2021/10/10 12:15:04;;;;;;;18.58;7.82;;;22.90;80.00;;;;;;5015744;28;20037;-89
2021/10/10 12:17:33;;;;;;;13.88;6.25;;;23.10;80.70;;;;;;5015670;28;20029;-89
2021/10/10 12:20:16;;;;;;;14.18;6.05;;;23.10;79.00;;;;;;5015630;28;20075;-89
2021/10/10 12:23:00;;;;;;;11.82;6.72;;;23.40;77.80;;;;;;5015887;28;20116;-90
2021/10/10 12:25:31;;;;;;;14.43;6.55;;;24.20;76.20;;;;;;5015763;28;20029;-90
2021/10/10 12:28:11;;;;;;;11.40;6.22;;;24.20;73.80;;;;;;5015691;28;20433;-90
2021/10/10 12:30:38;;;;;;;11.90;5.97;;;24.40;73.80;;;;;;5033287;28;20025;-90
2021/10/10 12:33:20;;;;;;;10.32;6.28;;;24.60;71.10;;;;;;5015577;28;20026;-90
2021/10/10 12:35:57;;;;;;;15.30;6.65;;;24.20;72.90;;;;;;5033292;28;20025;-90
2021/10/10 12:38:46;;;;;;;14.50;5.75;;;24.20;70.50;;;;;;5015406;28;20097;-90
2021/10/10 12:41:21;;;;;;;12.70;6.65;;;24.20;71.50;;;;;;5020698;28;20038;-89
2021/10/10 12:43:53;;;;;;;16.25;6.30;;;24.40;71.20;;;;;;5015548;28;20504;-90
2021/10/10 12:46:21;;;;;;;17.38;9.18;;;25.10;69.20;;;;;;5033210;28;20033;-89
2021/10/10 12:49:03;;;;;;;12.15;6.43;;;25.10;67.80;;;;;;5015380;28;20404;-90
2021/10/10 12:51:29;;;;;;;10.95;6.63;;;26.20;66.70;;;;;;5015524;28;20025;-90
2021/10/10 12:54:13;;;;;;;11.95;5.78;;;26.10;64.60;;;;;;5011902;28;20062;-90